Time;durP1;ratioP1;P1;durP2;ratioP2;P2;SDS_P1;SDS_P2;PMS_P1;PMS_P2;Temp;Humidity;BMP_temperature;BMP_pressure;BME280_temperature;BME280_humidity;BME280_pressure;Samples;Min_cycle;Max_cycle;Signal;HPM_P1;HPM_P2
2023/06/22 00:00:42;;;;;;;8.70;5.07;;;;;;;27.50;64.41;100420.78;5074675;28;20047;-70
2023/06/22 00:03:10;;;;;;;10.13;5.50;;;;;;;27.49;64.64;100421.81;5074915;28;20056;-69
2023/06/22 00:05:39;;;;;;;10.40;5.18;;;;;;;27.48;64.52;100413.81;5074813;28;20071;-71
2023/06/22 00:08:07;;;;;;;12.18;5.80;;;;;;;27.47;64.81;100417.59;5074564;28;20452;-70
2023/06/22 00:10:39;;;;;;;9.70;5.10;;;;;;;27.45;65.12;100420.53;5074654;28;20503;-71
2023/06/22 00:13:08;;;;;;;10.27;5.35;;;;;;;27.44;64.74;100429.78;5074476;28;20044;-71
2023/06/22 00:15:38;;;;;;;10.95;5.93;;;;;;;27.44;65.20;100434.44;5074663;28;20045;-71
2023/06/22 00:18:07;;;;;;;12.27;5.50;;;;;;;27.43;65.01;100427.25;5074543;28;20060;-71
2023/06/22 00:20:36;;;;;;;15.55;5.38;;;;;;;27.41;65.29;100429.31;5074266;28;20083;-70
2023/06/22 00:23:08;;;;;;;8.95;4.95;;;;;;;27.39;65.00;100426.78;5074510;28;20144;-71
2023/06/22 00:25:39;;;;;;;13.15;5.50;;;;;;;27.37;65.27;100435.22;5074188;28;20383;-70
2023/06/22 00:28:08;;;;;;;10.80;5.40;;;;;;;27.37;65.02;100435.22;5074342;28;20056;-71
2023/06/22 00:30:36;;;;;;;9.05;5.35;;;;;;;27.35;65.35;100431.81;5074109;28;20044;-71
2023/06/22 00:33:07;;;;;;;12.27;4.85;;;;;;;27.34;65.64;100429.28;5074356;28;20091;-71
2023/06/22 00:35:35;;;;;;;11.93;5.15;;;;;;;27.33;65.32;100428.44;5074175;28;20488;-71
2023/06/22 00:38:04;;;;;;;9.93;5.20;;;;;;;27.31;65.48;100419.59;5074100;28;20135;-71
2023/06/22 00:40:34;;;;;;;8.95;5.38;;;;;;;27.30;65.92;100408.78;5074472;28;20049;-71
2023/06/22 00:43:05;;;;;;;10.70;5.38;;;;;;;27.27;66.52;100417.41;5074166;28;20135;-71
2023/06/22 00:45:33;;;;;;;12.32;5.25;;;;;;;27.26;66.65;100422.06;5074201;28;20045;-70
2023/06/22 00:48:03;;;;;;;29.17;7.25;;;;;;;27.24;66.48;100429.63;5073991;28;20091;-71
2023/06/22 00:50:34;;;;;;;12.88;5.80;;;;;;;27.23;66.80;100427.94;5073845;28;20056;-70
2023/06/22 00:53:07;;;;;;;15.07;5.93;;;;;;;27.21;66.68;100430.00;5073715;28;20521;-70
2023/06/22 00:55:38;;;;;;;14.57;5.53;;;;;;;27.20;67.31;100424.72;5073896;28;20070;-70
2023/06/22 00:58:10;;;;;;;10.30;5.40;;;;;;;27.19;67.17;100415.66;5073617;28;20044;-69
2023/06/22 01:00:39;;;;;;;8.95;5.22;;;;;;;27.20;67.26;100411.88;5073880;28;20452;-70
2023/06/22 01:03:08;;;;;;;8.93;5.50;;;;;;;27.18;67.45;100413.13;5073522;28;20091;-69
2023/06/22 01:05:38;;;;;;;9.75;5.38;;;;;;;27.15;67.45;100411.63;5072910;28;20052;-70
2023/06/22 01:08:16;;;;;;;9.73;5.00;;;;;;;27.14;67.64;100414.56;5073574;28;20048;-70
2023/06/22 01:10:51;;;;;;;8.75;5.60;;;;;;;27.12;67.26;100420.25;5073624;28;20121;-70
2023/06/22 01:13:29;;;;;;;8.13;5.20;;;;;;;27.12;67.51;100422.97;5073253;28;20623;-70
2023/06/22 01:16:03;;;;;;;9.27;4.80;;;;;;;27.10;67.82;100427.78;5073275;28;20048;-70
2023/06/22 01:18:36;;;;;;;9.43;5.70;;;;;;;27.10;67.77;100430.53;5073451;28;20131;-70
2023/06/22 01:21:08;;;;;;;9.68;5.20;;;;;;;27.10;67.47;100425.03;5073293;28;20052;-70
2023/06/22 01:23:56;;;;;;;11.70;5.55;;;;;;;27.09;67.68;100429.66;5073261;28;20048;-70
2023/06/22 01:26:37;;;;;;;10.35;5.30;;;;;;;27.08;67.61;100418.91;5073123;28;20044;-68
2023/06/22 01:29:07;;;;;;;8.27;5.05;;;;;;;27.07;67.64;100411.75;5073386;28;20052;-70
2023/06/22 01:31:36;;;;;;;10.75;5.75;;;;;;;27.06;68.01;100426.50;5073437;28;20144;-69
2023/06/22 01:34:06;;;;;;;8.35;4.95;;;;;;;27.06;67.72;100431.97;5073137;28;20056;-70
2023/06/22 01:36:35;;;;;;;9.02;5.45;;;;;;;27.04;67.72;100434.06;5071850;28;20128;-69
2023/06/22 01:39:05;;;;;;;10.50;5.43;;;;;;;27.02;67.77;100419.66;5072950;28;20068;-69
2023/06/22 01:41:36;;;;;;;9.80;5.40;;;;;;;26.99;68.14;100411.84;5072960;28;20052;-69
2023/06/22 01:44:07;;;;;;;10.98;5.55;;;;;;;26.96;68.09;100414.97;5073075;28;20048;-69
2023/06/22 01:46:37;;;;;;;9.90;5.13;;;;;;;26.95;67.95;100418.78;5073149;28;20045;-70
2023/06/22 01:49:09;;;;;;;10.65;5.60;;;;;;;26.94;68.37;100411.59;5072672;28;20090;-70
2023/06/22 01:51:37;;;;;;;11.05;5.60;;;;;;;26.92;67.99;100416.41;5072907;28;20050;-71
2023/06/22 01:54:07;;;;;;;8.75;4.95;;;;;;;26.91;68.00;100415.56;5072803;28;20076;-69
2023/06/22 01:56:36;;;;;;;7.22;5.07;;;;;;;26.90;68.27;100422.06;5072779;28;20052;-70
2023/06/22 01:59:13;;;;;;;10.18;5.40;;;;;;;26.89;68.44;100422.28;5072508;28;20455;-69
2023/06/22 02:01:44;;;;;;;9.90;5.60;;;;;;;26.87;68.24;100416.16;5072500;28;20044;-70
2023/06/22 02:04:20;;;;;;;12.90;5.20;;;;;;;26.86;68.45;100415.31;5072669;28;20048;-70
2023/06/22 02:06:55;;;;;;;11.80;5.25;;;;;;;26.85;68.42;100418.25;5072540;28;20414;-71
2023/06/22 02:09:26;;;;;;;9.15;4.97;;;;;;;26.84;68.00;100427.50;5072229;28;20136;-71
2023/06/22 02:11:57;;;;;;;10.98;5.35;;;;;;;26.85;68.11;100430.03;5072390;28;20102;-71
2023/06/22 02:14:27;;;;;;;11.07;5.57;;;;;;;26.82;67.81;100433.97;5072015;28;20139;-71
2023/06/22 02:16:58;;;;;;;9.82;5.55;;;;;;;26.82;68.05;100431.25;5072295;28;20047;-72
2023/06/22 02:19:32;;;;;;;9.40;5.05;;;;;;;26.80;67.59;100425.13;5072211;28;20080;-71
2023/06/22 02:22:01;;;;;;;10.40;5.80;;;;;;;26.79;68.17;100430.78;5072124;28;20041;-72
2023/06/22 02:24:31;;;;;;;10.07;5.43;;;;;;;26.78;67.60;100438.16;5072426;28;20080;-71
2023/06/22 02:26:59;;;;;;;11.00;5.72;;;;;;;26.77;67.73;100441.94;5071961;28;20109;-71
2023/06/22 02:29:29;;;;;;;11.40;5.55;;;;;;;26.75;67.69;100438.56;5071833;28;20048;-71
2023/06/22 02:31:58;;;;;;;8.73;4.93;;;;;;;26.75;67.78;100435.81;5072077;28;20094;-71
2023/06/22 02:34:26;;;;;;;9.13;5.03;;;;;;;26.74;68.20;100434.13;5071880;28;20056;-71
2023/06/22 02:36:54;;;;;;;8.43;5.38;;;;;;;26.72;67.86;100436.19;5071829;28;20059;-71
2023/06/22 02:39:23;;;;;;;9.48;5.50;;;;;;;26.72;67.81;100436.19;5070466;28;20052;-70
2023/06/22 02:41:53;;;;;;;10.55;4.95;;;;;;;26.71;68.00;100445.44;5071628;28;20478;-71
2023/06/22 02:44:21;;;;;;;10.75;5.00;;;;;;;26.71;68.38;100450.91;5071941;28;20249;-71
2023/06/22 02:46:51;;;;;;;11.13;5.72;;;;;;;26.70;68.49;100449.22;5071843;28;20040;-71
2023/06/22 02:49:19;;;;;;;11.15;5.93;;;;;;;26.69;68.20;100443.94;5071586;28;20051;-71
2023/06/22 02:51:48;;;;;;;9.45;5.53;;;;;;;26.68;68.03;100437.63;5071636;28;20055;-71
2023/06/22 02:54:17;;;;;;;10.13;5.60;;;;;;;26.67;68.29;100444.13;5071746;28;20049;-71
2023/06/22 02:56:45;;;;;;;13.32;5.93;;;;;;;26.68;68.37;100450.44;5071711;28;20139;-71
2023/06/22 02:59:13;;;;;;;19.17;6.60;;;;;;;26.65;68.84;100448.97;5071576;28;20055;-70
2023/06/22 03:01:42;;;;;;;13.70;6.25;;;;;;;26.64;68.89;100450.00;5071419;28;20486;-70
2023/06/22 03:04:11;;;;;;;12.40;6.63;;;;;;;26.65;68.65;100457.16;5071428;28;20456;-70
2023/06/22 03:06:40;;;;;;;10.73;5.82;;;;;;;26.63;69.01;100448.28;5071271;28;20083;-70
2023/06/22 03:09:09;;;;;;;15.73;6.57;;;;;;;26.63;68.76;100451.00;5071246;28;20481;-70
2023/06/22 03:11:37;;;;;;;15.35;6.30;;;;;;;26.63;68.82;100442.81;5071416;28;20049;-70
2023/06/22 03:14:05;;;;;;;11.77;6.25;;;;;;;26.62;69.19;100457.53;5071342;28;20052;-70
2023/06/22 03:16:34;;;;;;;13.32;5.95;;;;;;;26.61;69.15;100450.38;5071583;28;20197;-70
2023/06/22 03:19:02;;;;;;;12.23;6.22;;;;;;;26.58;68.90;100449.91;5071178;28;20048;-70
2023/06/22 03:21:31;;;;;;;12.80;6.28;;;;;;;26.57;68.83;100442.75;5071087;28;20537;-70
2023/06/22 03:24:00;;;;;;;11.60;6.18;;;;;;;26.56;69.17;100444.63;5071120;28;20498;-70
2023/06/22 03:26:28;;;;;;;13.57;5.95;;;;;;;26.56;69.17;100450.09;5071252;28;20051;-71
2023/06/22 03:28:56;;;;;;;10.27;6.05;;;;;;;26.55;69.29;100448.41;5070666;28;20060;-70
2023/06/22 03:31:24;;;;;;;13.50;6.20;;;;;;;26.56;69.11;100449.25;5071130;28;20067;-70
2023/06/22 03:33:53;;;;;;;13.48;6.50;;;;;;;26.53;69.27;100447.72;5071012;28;20057;-70
2023/06/22 03:36:22;;;;;;;12.35;6.25;;;;;;;26.53;69.54;100442.25;5071181;28;20044;-70
2023/06/22 03:38:52;;;;;;;10.23;6.47;;;;;;;26.53;69.14;100431.31;5070895;28;20048;-70
2023/06/22 03:41:20;;;;;;;11.70;6.45;;;;;;;26.53;69.74;100445.00;5071153;28;20056;-69
2023/06/22 03:43:48;;;;;;;11.20;6.13;;;;;;;26.52;69.75;100440.56;5071024;28;20048;-70
2023/06/22 03:46:16;;;;;;;14.93;6.40;;;;;;;26.51;69.80;100445.19;5070993;28;20045;-70
2023/06/22 03:48:45;;;;;;;11.90;6.18;;;;;;;26.50;69.66;100437.19;5071103;28;20052;-71
2023/06/22 03:51:13;;;;;;;11.35;6.72;;;;;;;26.50;69.78;100445.38;5071127;28;20098;-70
2023/06/22 03:53:41;;;;;;;11.20;6.30;;;;;;;26.50;70.13;100448.13;5071051;28;20076;-70
2023/06/22 03:56:11;;;;;;;12.88;6.28;;;;;;;26.48;70.16;100450.22;5070943;28;20084;-70
2023/06/22 03:58:42;;;;;;;15.25;7.15;;;;;;;26.48;70.09;100450.22;5070859;28;20053;-70
2023/06/22 04:01:11;;;;;;;11.15;6.50;;;;;;;26.47;70.30;100451.25;5070760;28;20052;-69
2023/06/22 04:03:40;;;;;;;12.73;6.57;;;;;;;26.46;70.52;100457.75;5071107;28;20045;-72
2023/06/22 04:06:08;;;;;;;11.68;6.32;;;;;;;26.45;70.41;100448.72;5070912;28;20052;-71
2023/06/22 04:08:36;;;;;;;10.88;6.20;;;;;;;26.46;70.20;100461.34;5070964;28;20076;-71
2023/06/22 04:11:05;;;;;;;13.70;6.57;;;;;;;26.47;70.69;100467.66;5070660;28;20049;-71
2023/06/22 04:13:34;;;;;;;13.35;6.43;;;;;;;26.47;70.62;100470.41;5070375;28;20114;-71
2023/06/22 04:16:02;;;;;;;13.40;6.35;;;;;;;26.46;70.65;100474.16;5070883;28;20056;-70
2023/06/22 04:18:30;;;;;;;11.85;6.78;;;;;;;26.46;70.02;100468.69;5070671;28;20055;-72
2023/06/22 04:20:58;;;;;;;13.25;6.60;;;;;;;26.45;70.51;100465.13;5070506;28;20486;-71
2023/06/22 04:23:27;;;;;;;12.70;6.60;;;;;;;26.45;70.00;100462.38;5070575;28;20131;-71
2023/06/22 04:25:57;;;;;;;12.80;6.43;;;;;;;26.45;70.64;100464.28;5070396;28;20045;-71
2023/06/22 04:28:25;;;;;;;14.75;7.40;;;;;;;26.45;70.69;100469.75;5070463;28;20049;-72
2023/06/22 04:30:58;;;;;;;12.82;7.30;;;;;;;26.44;70.34;100471.63;5070896;28;20049;-71
2023/06/22 04:33:26;;;;;;;13.60;7.55;;;;;;;26.45;70.73;100473.31;5070680;28;20048;-71
2023/06/22 04:35:54;;;;;;;12.60;6.90;;;;;;;26.45;70.42;100467.00;5070415;28;20041;-71
2023/06/22 04:38:22;;;;;;;15.32;7.13;;;;;;;26.44;70.25;100473.50;5070419;28;20045;-71
2023/06/22 04:40:51;;;;;;;18.88;7.68;;;;;;;26.43;70.63;100482.72;5070486;28;20056;-71
2023/06/22 04:43:20;;;;;;;13.18;7.05;;;;;;;26.40;70.87;100474.91;5074243;28;20082;-71
2023/06/22 04:45:52;;;;;;;13.57;7.50;;;;;;;26.39;70.67;100473.22;5074079;28;20486;-72
2023/06/22 04:48:22;;;;;;;15.80;7.45;;;;;;;26.39;70.63;100467.75;5073739;28;20048;-71
2023/06/22 04:50:50;;;;;;;11.27;7.18;;;;;;;26.40;70.38;100474.91;5073859;28;20143;-70
2023/06/22 04:53:18;;;;;;;17.85;8.68;;;;;;;26.39;70.80;100479.53;5073796;28;20048;-72
2023/06/22 04:55:49;;;;;;;21.45;9.30;;;;;;;26.39;71.13;100479.53;5073968;28;20045;-70
2023/06/22 04:58:21;;;;;;;19.48;10.38;;;;;;;26.36;70.83;100484.53;5073506;28;20060;-72
2023/06/22 05:00:51;;;;;;;24.53;10.37;;;;;;;26.38;70.57;100477.00;5073940;28;20165;-71
2023/06/22 05:03:20;;;;;;;23.05;9.93;;;;;;;26.38;70.45;100488.78;5073439;28;20436;-70
2023/06/22 05:05:49;;;;;;;23.38;10.60;;;;;;;26.39;70.52;100478.69;5073579;28;20048;-72
2023/06/22 05:08:17;;;;;;;22.20;10.20;;;;;;;26.39;70.67;100478.69;5073613;28;20098;-71
2023/06/22 05:10:46;;;;;;;19.38;9.80;;;;;;;26.39;70.79;100481.44;5073560;28;20095;-72
2023/06/22 05:13:32;;;;;;;18.83;9.52;;;;;;;26.40;71.14;100486.69;5073189;28;20528;-72
2023/06/22 05:16:02;;;;;;;18.92;9.15;;;;;;;26.41;71.33;100490.28;5073316;28;20045;-72
2023/06/22 05:18:31;;;;;;;21.83;9.75;;;;;;;26.42;71.38;100494.72;5073122;28;20063;-71
2023/06/22 05:21:01;;;;;;;21.92;8.98;;;;;;;26.42;71.47;100489.25;5073329;28;20049;-71
2023/06/22 05:23:29;;;;;;;16.98;8.25;;;;;;;26.43;71.76;100491.78;5073147;28;20072;-71
2023/06/22 05:25:58;;;;;;;21.55;8.43;;;;;;;26.45;71.44;100497.09;5073072;28;20052;-72
2023/06/22 05:28:26;;;;;;;14.15;8.25;;;;;;;26.46;71.41;100507.00;5072826;28;20049;-72
2023/06/22 05:30:54;;;;;;;17.98;8.02;;;;;;;26.47;71.53;100503.22;5072754;28;20063;-73
2023/06/22 05:33:23;;;;;;;16.27;7.45;;;;;;;26.48;71.60;100505.75;5073081;28;20052;-72
2023/06/22 05:35:51;;;;;;;12.25;6.53;;;;;;;26.49;71.17;100517.53;5072816;28;20049;-72
2023/06/22 05:38:21;;;;;;;12.10;6.30;;;;;;;26.51;71.68;100510.00;5072648;28;20049;-72
2023/06/22 05:40:49;;;;;;;13.27;6.60;;;;;;;26.51;70.52;100512.72;5072648;28;20135;-73
2023/06/22 05:43:17;;;;;;;13.30;5.40;;;;;;;26.50;69.66;100519.22;5072493;28;20045;-71
2023/06/22 05:45:45;;;;;;;13.55;6.07;;;;;;;26.50;69.32;100524.69;5072503;28;20079;-72
2023/06/22 05:48:14;;;;;;;12.57;5.80;;;;;;;26.50;69.26;100521.97;5072263;28;20094;-71
2023/06/22 05:50:43;;;;;;;13.10;5.95;;;;;;;26.51;69.97;100526.41;5072494;28;20387;-71
2023/06/22 05:53:11;;;;;;;13.38;5.53;;;;;;;26.52;69.87;100519.88;5072204;28;20049;-70
2023/06/22 05:55:40;;;;;;;10.32;5.50;;;;;;;26.53;69.89;100518.84;5072639;28;20057;-71
2023/06/22 05:58:09;;;;;;;10.13;5.47;;;;;;;26.54;70.40;100528.78;5072207;28;20052;-72
2023/06/22 06:00:37;;;;;;;12.52;5.57;;;;;;;26.53;70.12;100533.38;5072307;28;20059;-72
2023/06/22 06:03:05;;;;;;;12.23;5.63;;;;;;;26.55;70.05;100527.75;5072460;28;20052;-73
2023/06/22 06:05:35;;;;;;;13.02;5.93;;;;;;;26.56;69.75;100528.59;5072175;28;20048;-71
2023/06/22 06:08:04;;;;;;;10.90;5.70;;;;;;;26.56;68.55;100526.69;5072420;28;20048;-71
2023/06/22 06:10:32;;;;;;;10.85;5.20;;;;;;;26.55;67.68;100533.22;5072129;28;20056;-72
2023/06/22 06:13:04;;;;;;;13.95;5.45;;;;;;;26.54;67.21;100528.78;5072473;28;20087;-72
2023/06/22 06:15:32;;;;;;;11.50;4.95;;;;;;;26.53;66.85;100529.78;5071755;28;20078;-71
2023/06/22 06:18:01;;;;;;;14.35;5.85;;;;;;;26.53;66.29;100525.16;5072208;28;20103;-72
2023/06/22 06:20:30;;;;;;;11.23;5.20;;;;;;;26.55;66.27;100532.34;5071116;28;20056;-72
2023/06/22 06:22:59;;;;;;;10.73;5.05;;;;;;;26.56;66.15;100529.44;5065032;28;20037;-72
2023/06/22 06:25:27;;;;;;;10.57;4.85;;;;;;;26.56;66.16;100528.59;5072236;28;20045;-72
2023/06/22 06:27:56;;;;;;;11.88;5.10;;;;;;;26.56;65.61;100526.69;5071954;28;20068;-71
2023/06/22 06:30:25;;;;;;;11.75;5.57;;;;;;;26.56;64.83;100525.84;5075336;28;20050;-71
2023/06/22 06:32:54;;;;;;;11.68;5.25;;;;;;;26.56;64.22;100523.13;5092015;28;20055;-72
2023/06/22 06:35:22;;;;;;;11.25;4.78;;;;;;;26.56;63.94;100512.16;5092070;28;20052;-71
2023/06/22 06:37:51;;;;;;;9.05;5.20;;;;;;;26.56;63.83;100514.91;5091696;28;20387;-71
2023/06/22 06:40:19;;;;;;;11.57;4.75;;;;;;;26.55;63.43;100516.78;5092230;28;20058;-71
2023/06/22 06:42:49;;;;;;;13.35;5.35;;;;;;;26.52;61.34;100511.69;5092089;28;20079;-71
2023/06/22 06:45:19;;;;;;;12.75;4.60;;;;;;;26.48;61.43;100513.97;5091927;28;20508;-72
2023/06/22 06:47:49;;;;;;;12.27;4.60;;;;;;;26.48;61.24;100510.38;5091836;28;20044;-72
2023/06/22 06:50:18;;;;;;;13.93;4.72;;;;;;;26.45;60.01;100511.63;5091688;28;20109;-72
2023/06/22 06:52:47;;;;;;;12.23;4.72;;;;;;;26.44;59.29;100518.13;5091843;28;20047;-73
2023/06/22 06:55:15;;;;;;;10.95;4.10;;;;;;;26.41;56.20;100517.63;5089367;28;20382;-72
2023/06/22 06:57:43;;;;;;;11.73;4.25;;;;;;;26.36;55.99;100517.34;5071397;28;20068;-73
2023/06/22 07:00:14;;;;;;;10.55;4.20;;;;;;;26.31;56.34;100522.50;5071135;28;20049;-75
2023/06/22 07:02:45;;;;;;;10.45;4.07;;;;;;;26.29;56.38;100511.75;5070944;28;20175;-72
2023/06/22 07:05:15;;;;;;;11.30;4.70;;;;;;;26.29;55.28;100511.75;5068953;28;20456;-72
2023/06/22 07:07:43;;;;;;;10.45;4.35;;;;;;;26.29;55.38;100500.81;5070119;28;20049;-72
2023/06/22 07:10:12;;;;;;;8.27;3.70;;;;;;;26.33;56.12;100510.34;5071144;28;20052;-71
2023/06/22 07:12:40;;;;;;;12.25;3.97;;;;;;;26.35;56.56;100504.69;5070439;28;20474;-71
2023/06/22 07:15:11;;;;;;;10.75;3.90;;;;;;;26.37;56.75;100503.50;5070144;28;20088;-71
2023/06/22 07:17:40;;;;;;;11.07;3.80;;;;;;;26.39;55.77;100506.88;5070731;28;20524;-71
2023/06/22 07:20:11;;;;;;;11.63;3.65;;;;;;;26.41;55.08;100501.22;5070573;28;20047;-71
2023/06/22 07:22:44;;;;;;;10.52;3.65;;;;;;;26.41;53.46;100503.97;5070637;28;20486;-72
2023/06/22 07:25:14;;;;;;;10.18;3.92;;;;;;;26.41;52.46;100504.81;5070984;28;20460;-71
2023/06/22 07:27:47;;;;;;;11.77;3.65;;;;;;;26.42;52.43;100495.56;5070726;28;20056;-71
2023/06/22 07:30:16;;;;;;;8.55;3.50;;;;;;;26.43;51.58;100501.88;5071059;28;20083;-71
2023/06/22 07:32:44;;;;;;;9.45;3.72;;;;;;;26.43;52.15;100500.00;5071167;28;20205;-72
2023/06/22 07:35:12;;;;;;;10.88;3.42;;;;;;;26.44;52.54;100501.72;5070751;28;20044;-72
2023/06/22 07:37:41;;;;;;;10.07;3.63;;;;;;;26.45;52.41;100505.28;5070595;28;20044;-72
2023/06/22 07:40:10;;;;;;;10.50;3.70;;;;;;;26.45;52.73;100505.28;5070985;28;20421;-72
2023/06/22 07:42:39;;;;;;;10.07;3.67;;;;;;;26.49;52.79;100509.34;5070857;28;20044;-73
2023/06/22 07:45:08;;;;;;;10.48;3.60;;;;;;;26.49;52.75;100493.78;5070718;28;20131;-70
2023/06/22 07:47:37;;;;;;;11.93;4.05;;;;;;;26.51;51.44;100505.38;5070689;28;20044;-72
2023/06/22 07:50:06;;;;;;;10.93;4.13;;;;;;;26.53;51.71;100500.53;5070975;28;20477;-72
2023/06/22 07:52:34;;;;;;;14.32;4.13;;;;;;;26.56;52.09;100501.22;5070794;28;20053;-72
2023/06/22 07:55:05;;;;;;;11.95;4.05;;;;;;;26.57;52.05;100502.91;5070479;28;20391;-72
2023/06/22 07:57:33;;;;;;;10.35;3.80;;;;;;;26.58;52.10;100499.16;5070994;28;20045;-72
2023/06/22 08:00:11;;;;;;;8.32;3.88;;;;;;;26.61;52.36;100498.75;5070996;28;20083;-72
2023/06/22 08:02:40;;;;;;;11.13;4.05;;;;;;;26.62;51.58;100495.81;5070857;28;20500;-72
2023/06/22 08:05:11;;;;;;;10.17;4.53;;;;;;;26.65;51.89;100486.41;5070761;28;20132;-71
2023/06/22 08:07:59;;;;;;;12.90;4.35;;;;;;;26.64;52.54;100480.09;5070698;28;20080;-70
2023/06/22 08:10:29;;;;;;;10.30;4.45;;;;;;;26.66;52.32;100482.63;5070892;28;20114;-72
2023/06/22 08:12:57;;;;;;;9.93;4.05;;;;;;;26.66;51.80;100480.75;5070944;28;20448;-70
2023/06/22 08:15:28;;;;;;;10.10;4.15;;;;;;;26.69;52.17;100480.34;5071697;28;20486;-70
2023/06/22 08:17:57;;;;;;;9.77;4.00;;;;;;;26.71;51.99;100481.00;5074490;28;20070;-71
2023/06/22 08:20:26;;;;;;;7.88;4.20;;;;;;;26.72;52.16;100479.97;5074136;28;20524;-71
2023/06/22 08:22:55;;;;;;;9.77;4.20;;;;;;;26.75;52.69;100487.81;5074604;28;20448;-70
2023/06/22 08:25:23;;;;;;;8.57;4.07;;;;;;;26.78;52.77;100479.19;5074314;28;20090;-71
2023/06/22 08:27:53;;;;;;;10.93;5.00;;;;;;;26.80;52.86;100479.84;5074215;28;20045;-70
2023/06/22 08:30:21;;;;;;;10.55;5.93;;;;;;;26.82;52.32;100488.72;5074419;28;20044;-71
2023/06/22 08:32:49;;;;;;;9.70;5.60;;;;;;;26.85;52.65;100479.28;5074061;28;20044;-71
2023/06/22 08:35:17;;;;;;;10.32;5.75;;;;;;;26.86;52.99;100478.25;5074331;28;20048;-72
2023/06/22 08:37:50;;;;;;;12.80;6.05;;;;;;;26.89;52.53;100477.00;5074339;28;20072;-71
2023/06/22 08:40:19;;;;;;;;;;;;;;;26.90;53.02;100475.97;5074640;28;20067;-71
2023/06/22 08:42:48;;;;;;;9.30;5.63;;;;;;;26.93;53.13;100472.84;5074088;28;20019;-71
2023/06/22 08:45:17;;;;;;;9.75;5.75;;;;;;;26.93;53.83;100470.13;5074109;28;20040;-72
2023/06/22 08:47:45;;;;;;;13.30;6.15;;;;;;;26.95;53.80;100468.88;5074209;28;20457;-71
2023/06/22 08:50:14;;;;;;;9.27;5.93;;;;;;;26.98;53.94;100473.09;5073950;28;20045;-71
2023/06/22 08:52:42;;;;;;;12.40;6.85;;;;;;;27.01;54.17;100465.34;5073785;28;20059;-71
2023/06/22 08:55:11;;;;;;;12.93;6.97;;;;;;;27.04;54.36;100462.28;5073837;28;20448;-71
2023/06/22 08:57:39;;;;;;;11.68;6.72;;;;;;;27.07;53.75;100456.41;5073801;28;20429;-71
2023/06/22 09:00:19;;;;;;;11.88;6.78;;;;;;;27.09;53.92;100458.94;5073715;28;20227;-71
2023/06/22 09:02:49;;;;;;;10.50;6.65;;;;;;;27.12;54.30;100458.56;5073381;28;20500;-71
2023/06/22 09:05:18;;;;;;;11.63;6.70;;;;;;;27.15;54.50;100460.91;5073662;28;20044;-71
2023/06/22 09:07:47;;;;;;;10.77;7.10;;;;;;;27.17;54.29;100456.09;5073566;28;20044;-72
2023/06/22 09:10:18;;;;;;;11.75;7.53;;;;;;;27.21;54.28;100451.91;5073336;28;20070;-71
2023/06/22 09:12:46;;;;;;;11.27;7.47;;;;;;;27.24;54.24;100445.19;5073365;28;20071;-72
2023/06/22 09:15:14;;;;;;;12.07;8.00;;;;;;;27.25;54.62;100446.91;5073165;28;20048;-71
2023/06/22 09:17:46;;;;;;;13.02;8.10;;;;;;;27.28;54.61;100441.84;5073413;28;20111;-72
2023/06/22 09:20:16;;;;;;;11.43;8.13;;;;;;;27.30;55.16;100445.25;5073556;28;20055;-73
2023/06/22 09:22:45;;;;;;;10.38;7.88;;;;;;;27.33;54.88;100442.13;5073284;28;20075;-71
2023/06/22 09:25:13;;;;;;;11.82;7.82;;;;;;;27.36;54.55;100436.25;5073589;28;20044;-72
2023/06/22 09:27:41;;;;;;;15.07;7.45;;;;;;;27.38;54.89;100434.16;5072570;28;20052;-71
2023/06/22 09:30:10;;;;;;;13.20;7.88;;;;;;;27.41;54.83;100426.59;5073452;28;20045;-72
2023/06/22 09:32:38;;;;;;;13.38;7.90;;;;;;;27.45;55.52;100430.63;5073230;28;20117;-72
2023/06/22 09:35:08;;;;;;;12.55;8.43;;;;;;;27.51;54.61;100425.22;5073213;28;20057;-72
2023/06/22 09:37:38;;;;;;;13.30;8.10;;;;;;;27.53;54.99;100433.25;5073007;28;20102;-72
2023/06/22 09:40:10;;;;;;;12.63;8.02;;;;;;;27.55;55.19;100425.66;5073363;28;20391;-71
2023/06/22 09:42:39;;;;;;;11.50;7.82;;;;;;;27.55;55.22;100432.00;5073293;28;20049;-71
2023/06/22 09:45:08;;;;;;;11.35;8.05;;;;;;;27.56;55.07;100432.84;5073184;28;20486;-72
2023/06/22 09:47:37;;;;;;;10.88;6.85;;;;;;;27.56;55.72;100427.34;5072944;28;20414;-72
2023/06/22 09:50:07;;;;;;;13.35;8.75;;;;;;;27.58;55.94;100428.00;5072823;28;20090;-72
2023/06/22 09:52:35;;;;;;;12.82;8.80;;;;;;;27.61;55.87;100430.38;5073034;28;20131;-72
2023/06/22 09:55:17;;;;;;;12.77;9.27;;;;;;;27.63;55.87;100429.13;5072989;28;20119;-72
2023/06/22 09:57:45;;;;;;;14.20;8.57;;;;;;;27.67;55.50;100424.09;5072597;28;20474;-71
2023/06/22 10:00:15;;;;;;;11.52;8.40;;;;;;;27.70;55.56;100429.22;5072531;28;20052;-72
2023/06/22 10:02:43;;;;;;;9.40;7.95;;;;;;;27.71;55.87;100416.34;5072286;28;20143;-72
2023/06/22 10:05:12;;;;;;;10.40;7.80;;;;;;;27.73;55.44;100414.25;5072748;28;20044;-72
2023/06/22 10:07:43;;;;;;;11.18;7.93;;;;;;;27.73;56.09;100425.22;5072524;28;20052;-72
2023/06/22 10:10:13;;;;;;;10.18;8.02;;;;;;;27.74;56.61;100425.00;5072414;28;20056;-72
2023/06/22 10:12:47;;;;;;;11.25;8.38;;;;;;;27.77;56.60;100426.50;5072488;28;20083;-72
2023/06/22 10:15:16;;;;;;;17.88;9.13;;;;;;;27.79;56.55;100425.22;5072188;28;20421;-73
2023/06/22 10:17:48;;;;;;;10.63;8.38;;;;;;;27.81;56.25;100423.16;5072731;28;20127;-72
2023/06/22 10:20:18;;;;;;;13.55;8.60;;;;;;;27.83;56.80;100418.31;5072828;28;20040;-72
2023/06/22 10:22:46;;;;;;;9.35;7.45;;;;;;;27.83;56.79;100417.47;5072520;28;20048;-72
2023/06/22 10:25:14;;;;;;;14.05;8.63;;;;;;;27.86;56.23;100417.06;5072324;28;20048;-72
2023/06/22 10:27:44;;;;;;;14.00;9.63;;;;;;;27.89;56.28;100412.06;5071968;28;20048;-71
2023/06/22 10:30:14;;;;;;;13.52;9.40;;;;;;;27.95;55.99;100411.22;5072271;28;20406;-71
2023/06/22 10:32:43;;;;;;;11.95;9.23;;;;;;;28.05;55.14;100420.97;5072361;28;20040;-72
2023/06/22 10:35:13;;;;;;;11.57;9.20;;;;;;;28.07;55.13;100414.25;5072226;28;20051;-71
2023/06/22 10:37:43;;;;;;;11.43;9.07;;;;;;;28.11;54.96;100414.69;5071839;28;20421;-72
2023/06/22 10:40:13;;;;;;;12.90;8.73;;;;;;;28.14;54.82;100417.88;5071900;28;20097;-72
2023/06/22 10:42:41;;;;;;;15.18;9.35;;;;;;;28.20;53.83;100413.50;5072079;28;20052;-72
2023/06/22 10:45:11;;;;;;;13.18;9.10;;;;;;;28.25;53.74;100405.47;5071978;28;20478;-72
2023/06/22 10:47:41;;;;;;;14.43;8.93;;;;;;;28.30;53.52;100408.50;5071999;28;20059;-72
2023/06/22 10:50:11;;;;;;;11.07;8.43;;;;;;;28.34;53.60;100409.78;5071735;28;20106;-72
2023/06/22 10:52:39;;;;;;;11.48;8.13;;;;;;;28.35;53.67;100400.50;5071812;28;20074;-72
2023/06/22 10:55:08;;;;;;;12.77;8.93;;;;;;;28.35;53.79;100399.66;5071660;28;20052;-71
2023/06/22 10:57:36;;;;;;;10.95;8.10;;;;;;;28.37;53.86;100397.53;5071872;28;20078;-72
2023/06/22 11:00:07;;;;;;;10.80;8.43;;;;;;;28.38;54.05;100396.53;5071508;28;20075;-71
2023/06/22 11:02:37;;;;;;;12.68;9.10;;;;;;;28.41;54.18;100399.69;5071569;28;20052;-73
2023/06/22 11:05:06;;;;;;;13.98;8.63;;;;;;;28.47;53.35;100396.13;5071516;28;20395;-73
2023/06/22 11:07:34;;;;;;;13.27;9.13;;;;;;;28.54;53.27;100398.03;5071421;28;20044;-73
2023/06/22 11:10:02;;;;;;;17.48;9.27;;;;;;;28.57;53.07;100403.09;5072034;28;20044;-73
2023/06/22 11:12:31;;;;;;;15.07;9.23;;;;;;;28.63;52.97;100396.81;5071370;28;20059;-73
2023/06/22 11:14:59;;;;;;;11.00;8.63;;;;;;;28.65;53.02;100386.47;5071249;28;20465;-73
2023/06/22 11:17:27;;;;;;;13.88;9.02;;;;;;;28.67;53.73;100393.44;5071258;28;20045;-73
2023/06/22 11:20:00;;;;;;;13.13;9.10;;;;;;;28.71;53.07;100393.88;5071126;28;20048;-72
2023/06/22 11:22:29;;;;;;;11.00;8.65;;;;;;;28.70;53.88;100387.53;5071185;28;20050;-73
2023/06/22 11:24:58;;;;;;;11.15;8.60;;;;;;;28.70;53.95;100384.78;5071242;28;20131;-74
2023/06/22 11:27:26;;;;;;;12.50;8.35;;;;;;;28.71;54.07;100388.38;5071088;28;20045;-74
2023/06/22 11:29:54;;;;;;;18.33;9.45;;;;;;;28.69;53.80;100383.09;5071237;28;20055;-73